createdAt,value
2018-04-14T00:00:23.839Z,7.00
2018-04-14T00:02:50.173Z,7.00
2018-04-14T00:05:17.246Z,7.00
2018-04-14T00:07:43.586Z,7.00
2018-04-14T00:10:09.896Z,6.90
2018-04-14T00:12:36.973Z,6.80
2018-04-14T00:15:03.307Z,6.80
2018-04-14T00:17:29.660Z,6.80
2018-04-14T00:19:55.977Z,6.80
2018-04-14T00:22:22.284Z,6.80
2018-04-14T00:24:48.608Z,6.70
2018-04-14T00:27:14.927Z,7.80
2018-04-14T00:29:42.006Z,6.50
2018-04-14T00:32:08.328Z,6.70
2018-04-14T00:34:34.654Z,6.60
2018-04-14T00:37:00.995Z,6.60
2018-04-14T00:39:27.336Z,6.60
2018-04-14T00:41:53.672Z,6.70
2018-04-14T00:44:19.997Z,6.80
2018-04-14T00:46:46.328Z,6.80
2018-04-14T00:49:12.729Z,6.90
2018-04-14T00:51:39.115Z,6.90
2018-04-14T00:54:05.463Z,7.00
2018-04-14T00:56:31.794Z,6.90
2018-04-14T00:58:58.137Z,6.90
2018-04-14T01:01:25.204Z,6.80
2018-04-14T01:03:51.530Z,6.80
2018-04-14T01:06:17.860Z,6.80
2018-04-14T01:08:44.920Z,6.80
2018-04-14T01:11:11.313Z,6.70
2018-04-14T01:13:37.701Z,6.80
2018-04-14T01:16:04.124Z,6.80
2018-04-14T01:18:30.441Z,6.80
2018-04-14T01:20:56.773Z,6.80
2018-04-14T01:23:23.845Z,6.70
2018-04-14T01:25:50.278Z,6.60
2018-04-14T01:28:16.603Z,6.60
2018-04-14T01:30:42.945Z,6.60
2018-04-14T01:33:09.279Z,6.50
2018-04-14T01:35:35.619Z,6.60
2018-04-14T01:38:01.949Z,6.50
2018-04-14T01:40:28.273Z,6.50
2018-04-14T01:42:54.661Z,6.50
2018-04-14T01:45:22.796Z,6.50
2018-04-14T01:47:49.294Z,6.50
2018-04-14T01:50:18.066Z,6.50
2018-04-14T01:52:45.216Z,6.40
2018-04-14T01:55:11.548Z,6.40
2018-04-14T01:57:37.901Z,6.40
2018-04-14T02:00:04.263Z,6.40
2018-04-14T02:02:30.593Z,6.40
2018-04-14T02:04:56.908Z,6.30
2018-04-14T02:07:23.237Z,6.20
2018-04-14T02:09:51.145Z,6.20
2018-04-14T02:12:18.216Z,6.20
2018-04-14T02:14:44.533Z,6.20
2018-04-14T02:17:11.605Z,6.20
2018-04-14T02:19:37.921Z,6.10
2018-04-14T02:22:04.991Z,6.10
2018-04-14T02:24:31.317Z,6.00
2018-04-14T02:26:57.637Z,6.00
2018-04-14T02:29:23.957Z,6.10
2018-04-14T02:31:51.044Z,6.00
2018-04-14T02:34:17.407Z,6.00
2018-04-14T02:36:43.734Z,6.00
2018-04-14T02:39:10.077Z,6.00
2018-04-14T02:41:36.428Z,6.00
2018-04-14T02:44:03.518Z,6.00
2018-04-14T02:46:30.849Z,6.00
2018-04-14T02:48:57.202Z,6.00
2018-04-14T02:51:24.558Z,5.90
2018-04-14T02:53:50.874Z,5.90
2018-04-14T02:56:17.201Z,6.00
2018-04-14T02:58:44.129Z,6.10
2018-04-14T03:01:10.514Z,6.00
2018-04-14T03:03:37.866Z,6.10
2018-04-14T03:06:04.243Z,6.10
2018-04-14T03:08:30.617Z,6.10
2018-04-14T03:10:56.945Z,6.20
2018-04-14T03:13:23.278Z,6.10
2018-04-14T03:15:50.558Z,6.10
2018-04-14T03:18:16.876Z,6.10
2018-04-14T03:20:43.193Z,6.00
2018-04-14T03:23:09.520Z,5.90
2018-04-14T03:25:35.852Z,5.90
2018-04-14T03:28:02.171Z,5.80
2018-04-14T03:30:29.509Z,5.90
2018-04-14T03:32:55.840Z,7.30
2018-04-14T03:35:22.177Z,5.80
2018-04-14T03:37:48.484Z,5.80
2018-04-14T03:40:16.256Z,5.80
2018-04-14T03:42:42.621Z,5.80
2018-04-14T03:45:08.952Z,5.80
2018-04-14T03:47:35.261Z,5.80
2018-04-14T03:50:01.626Z,5.90
2018-04-14T03:52:27.945Z,5.90
2018-04-14T03:54:54.265Z,5.90
2018-04-14T03:57:20.581Z,5.90
2018-04-14T03:59:46.895Z,6.00
2018-04-14T04:02:13.972Z,6.10
2018-04-14T04:04:40.284Z,6.00
2018-04-14T04:07:06.605Z,5.60
2018-04-14T04:09:32.952Z,6.10
2018-04-14T04:11:59.294Z,6.10
2018-04-14T04:14:25.604Z,6.10
2018-04-14T04:16:51.934Z,6.10
2018-04-14T04:19:30.585Z,6.10
2018-04-14T04:22:09.341Z,6.10
2018-04-14T04:24:48.089Z,6.10
2018-04-14T04:27:16.189Z,6.20
2018-04-14T04:29:42.508Z,6.10
2018-04-14T04:32:08.825Z,6.30
2018-04-14T04:34:35.134Z,6.30
2018-04-14T04:37:01.469Z,6.40
2018-04-14T04:39:27.785Z,6.40
2018-04-14T04:41:54.126Z,6.50
2018-04-14T04:44:20.461Z,6.50
2018-04-14T04:46:46.789Z,6.50
2018-04-14T04:49:13.109Z,6.60
2018-04-14T04:51:39.441Z,6.60
2018-04-14T04:54:05.781Z,6.40
2018-04-14T04:56:32.112Z,6.30
2018-04-14T04:58:59.197Z,6.30
2018-04-14T05:01:25.521Z,6.30
2018-04-14T05:03:51.890Z,6.30
2018-04-14T05:06:18.218Z,6.40
2018-04-14T05:08:45.538Z,6.40
2018-04-14T05:11:11.872Z,6.30
2018-04-14T05:13:38.228Z,6.40
2018-04-14T05:16:04.544Z,6.50
2018-04-14T05:18:30.865Z,6.60
2018-04-14T05:20:57.198Z,6.60
2018-04-14T05:23:23.528Z,6.70
2018-04-14T05:25:49.840Z,6.80
2018-04-14T05:28:16.900Z,6.90
2018-04-14T05:30:43.960Z,7.00
2018-04-14T05:33:11.297Z,7.00
2018-04-14T05:35:38.344Z,7.20
2018-04-14T05:38:05.403Z,7.30
2018-04-14T05:40:31.737Z,7.30
2018-04-14T05:42:59.857Z,7.30
2018-04-14T05:45:27.233Z,7.30
2018-04-14T05:47:54.316Z,7.50
2018-04-14T05:50:20.655Z,7.50
2018-04-14T05:52:46.979Z,7.70
2018-04-14T05:55:13.320Z,7.80
2018-04-14T05:57:39.669Z,8.00
2018-04-14T06:00:06.041Z,8.20
2018-04-14T06:02:32.393Z,8.30
2018-04-14T06:04:58.739Z,8.40
2018-04-14T06:07:25.053Z,8.60
2018-04-14T06:09:51.373Z,8.70
2018-04-14T06:12:17.704Z,8.80
2018-04-14T06:14:44.037Z,9.00
2018-04-14T06:17:10.365Z,9.10
2018-04-14T06:19:36.693Z,9.20
2018-04-14T06:22:03.051Z,9.40
2018-04-14T06:24:30.149Z,9.70
2018-04-14T06:29:16.711Z,9.90
2018-04-14T06:31:43.032Z,10.10
2018-04-14T06:34:09.361Z,10.40
2018-04-14T06:36:35.725Z,10.40
2018-04-14T06:39:02.089Z,10.50
2018-04-14T06:41:28.413Z,10.70
2018-04-14T06:43:54.735Z,10.90
2018-04-14T06:46:21.082Z,11.10
2018-04-14T06:48:47.403Z,11.40
2018-04-14T06:51:13.709Z,11.60
2018-04-14T06:53:40.041Z,11.70
2018-04-14T06:56:06.366Z,11.90
2018-04-14T06:58:32.697Z,12.00
2018-04-14T07:00:59.008Z,12.20
2018-04-14T07:03:25.320Z,12.40
2018-04-14T07:05:51.677Z,12.60
2018-04-14T07:08:18.041Z,12.90
2018-04-14T07:10:44.374Z,13.10
2018-04-14T07:13:10.713Z,13.30
2018-04-14T07:15:37.062Z,13.50
2018-04-14T07:18:04.137Z,14.10
2018-04-14T07:20:30.477Z,14.20
2018-04-14T07:22:56.786Z,14.30
2018-04-14T07:25:23.124Z,14.60
2018-04-14T07:27:49.445Z,14.90
2018-04-14T07:30:15.804Z,15.00
2018-04-14T07:32:42.116Z,15.20
2018-04-14T07:35:08.452Z,15.40
2018-04-14T07:37:35.869Z,15.50
2018-04-14T07:40:02.222Z,15.60
2018-04-14T07:42:28.585Z,15.60
2018-04-14T07:44:55.927Z,15.70
2018-04-14T07:47:22.237Z,15.60
2018-04-14T07:49:48.604Z,15.70
2018-04-14T07:52:15.020Z,15.70
2018-04-14T07:54:41.348Z,15.80
2018-04-14T07:57:07.665Z,16.00
2018-04-14T07:59:34.022Z,15.90
2018-04-14T08:02:00.333Z,16.00
2018-04-14T08:04:26.672Z,16.30
2018-04-14T08:06:52.978Z,16.40
2018-04-14T08:09:20.032Z,16.90
2018-04-14T08:11:47.608Z,17.00
2018-04-14T08:14:13.930Z,17.00
2018-04-14T08:16:40.973Z,17.60
2018-04-14T08:19:08.033Z,17.60
2018-04-14T08:21:34.348Z,17.60
2018-04-14T08:24:01.418Z,18.00
2018-04-14T08:26:28.388Z,18.00
2018-04-14T08:28:54.716Z,18.10
2018-04-14T08:31:21.052Z,18.00
2018-04-14T08:33:47.377Z,17.90
2018-04-14T08:36:14.711Z,17.90
2018-04-14T08:38:41.057Z,18.00
2018-04-14T08:41:07.430Z,18.00
2018-04-14T08:43:34.496Z,17.90
2018-04-14T08:46:02.571Z,18.10
2018-04-14T08:48:29.613Z,18.10
2018-04-14T08:50:56.689Z,17.90
2018-04-14T08:53:23.008Z,17.90
2018-04-14T08:55:49.341Z,17.80
2018-04-14T08:58:15.641Z,17.80
2018-04-14T09:00:42.704Z,17.80
2018-04-14T09:03:10.837Z,17.90
2018-04-14T09:05:37.201Z,17.90
2018-04-14T09:08:05.273Z,18.10
2018-04-14T09:10:32.349Z,18.40
2018-04-14T09:12:58.652Z,18.50
2018-04-14T09:15:26.728Z,18.80
2018-04-14T09:17:53.778Z,18.80
2018-04-14T09:20:21.860Z,19.10
2018-04-14T09:22:48.229Z,19.10
2018-04-14T09:25:14.541Z,19.20
2018-04-14T09:27:41.881Z,19.50
2018-04-14T09:30:08.198Z,19.70
2018-04-14T09:32:34.533Z,19.80
2018-04-14T09:35:00.864Z,19.80
2018-04-14T09:37:28.233Z,19.70
2018-04-14T09:39:54.584Z,19.30
2018-04-14T09:42:20.932Z,19.20
2018-04-14T09:44:47.776Z,19.10
2018-04-14T09:47:14.109Z,19.30
2018-04-14T09:49:40.473Z,19.50
2018-04-14T09:52:06.818Z,19.50
2018-04-14T09:54:33.125Z,19.70
2018-04-14T09:56:59.424Z,19.90
2018-04-14T09:59:25.737Z,20.00
2018-04-14T10:01:52.082Z,20.10
2018-04-14T10:04:18.456Z,20.20
2018-04-14T10:06:45.505Z,20.50
2018-04-14T10:09:12.578Z,20.50
2018-04-14T10:11:38.892Z,20.40
2018-04-14T10:14:06.949Z,20.70
2018-04-14T10:16:34.017Z,20.80
2018-04-14T10:19:00.925Z,20.70
2018-04-14T10:21:27.993Z,21.10
2018-04-14T10:23:55.048Z,21.30
2018-04-14T10:26:23.138Z,21.50
2018-04-14T10:28:49.480Z,21.40
2018-04-14T10:31:15.820Z,21.60
2018-04-14T10:33:42.152Z,21.60
2018-04-14T10:36:08.485Z,21.60
2018-04-14T10:38:34.830Z,21.30
2018-04-14T10:41:01.193Z,21.10
2018-04-14T10:43:28.267Z,21.10
2018-04-14T10:45:54.604Z,21.10
2018-04-14T10:48:20.937Z,21.40
2018-04-14T10:50:47.271Z,21.70
2018-04-14T10:53:14.643Z,21.70
2018-04-14T10:55:40.973Z,21.60
2018-04-14T10:58:07.282Z,21.50
2018-04-14T11:00:33.605Z,21.70
2018-04-14T11:03:00.970Z,22.00
2018-04-14T11:05:27.296Z,22.00
2018-04-14T11:07:53.617Z,21.90
2018-04-14T11:10:19.930Z,21.80
2018-04-14T11:12:48.054Z,21.80
2018-04-14T11:15:14.369Z,21.70
2018-04-14T11:17:40.728Z,21.50
2018-04-14T11:20:07.042Z,21.60
2018-04-14T11:22:33.360Z,21.60
2018-04-14T11:25:00.730Z,21.60
2018-04-14T11:27:28.060Z,21.60
2018-04-14T11:29:54.397Z,21.90
2018-04-14T11:32:20.715Z,21.90
2018-04-14T11:34:48.049Z,22.10
2018-04-14T11:37:15.113Z,22.50
2018-04-14T11:39:42.152Z,22.60
2018-04-14T11:42:09.241Z,22.60
2018-04-14T11:44:35.560Z,22.60
2018-04-14T11:47:01.886Z,22.70
2018-04-14T11:49:28.193Z,22.80
2018-04-14T11:51:55.257Z,22.50
2018-04-14T11:54:21.567Z,22.50
2018-04-14T11:56:48.613Z,22.60
2018-04-14T11:59:15.667Z,22.60
2018-04-14T12:01:42.712Z,22.70
2018-04-14T12:04:09.766Z,22.70
2018-04-14T12:06:36.820Z,22.90
2018-04-14T12:09:03.209Z,22.90
2018-04-14T12:11:29.533Z,23.10
2018-04-14T12:13:55.856Z,23.10
2018-04-14T12:16:22.178Z,23.20
2018-04-14T12:18:48.492Z,23.20
2018-04-14T12:21:14.800Z,23.20
2018-04-14T12:23:41.129Z,23.40
2018-04-14T12:26:07.457Z,23.30
2018-04-14T12:28:34.505Z,23.60
2018-04-14T12:31:01.558Z,23.70
2018-04-14T12:33:28.948Z,23.60
2018-04-14T12:35:55.269Z,24.00
2018-04-14T12:38:21.586Z,24.40
2018-04-14T12:40:47.905Z,24.70
2018-04-14T12:43:14.204Z,25.10
2018-04-14T12:45:40.525Z,25.20
2018-04-14T12:48:06.849Z,25.60
2018-04-14T12:50:33.186Z,26.10
2018-04-14T12:52:59.522Z,26.50
2018-04-14T12:55:27.321Z,27.00
2018-04-14T12:57:53.704Z,27.00
2018-04-14T13:00:20.028Z,27.60
2018-04-14T13:02:46.389Z,27.50
2018-04-14T13:05:12.707Z,27.70
2018-04-14T13:07:39.008Z,27.70
2018-04-14T13:10:05.317Z,28.20
2018-04-14T13:12:31.625Z,28.60
2018-04-14T13:14:58.725Z,29.70
2018-04-14T13:17:25.065Z,29.70
2018-04-14T13:19:51.384Z,30.00
2018-04-14T13:22:17.736Z,30.30
2018-04-14T13:24:45.093Z,30.10
2018-04-14T13:27:11.432Z,29.90
2018-04-14T13:29:37.792Z,30.00
2018-04-14T13:32:04.748Z,30.20
2018-04-14T13:34:31.077Z,30.20
2018-04-14T13:36:57.401Z,30.50
2018-04-14T13:39:23.733Z,30.90
2018-04-14T13:41:51.315Z,30.70
2018-04-14T13:44:17.653Z,30.60
2018-04-14T13:46:43.985Z,30.80
2018-04-14T13:49:10.299Z,31.10
2018-04-14T13:51:36.630Z,31.30
2018-04-14T13:54:02.974Z,31.40
2018-04-14T13:56:29.321Z,31.50
2018-04-14T13:58:55.645Z,31.40
2018-04-14T14:01:21.978Z,32.10
2018-04-14T14:03:48.296Z,32.70
2018-04-14T14:06:14.629Z,32.20
2018-04-14T14:08:40.945Z,31.80
2018-04-14T14:11:07.261Z,31.70
2018-04-14T14:13:33.560Z,32.30
2018-04-14T14:15:59.880Z,32.60
2018-04-14T14:18:26.208Z,32.30
2018-04-14T14:20:52.545Z,32.20
2018-04-14T14:23:18.885Z,32.40
2018-04-14T14:25:45.202Z,32.30
2018-04-14T14:28:11.678Z,33.50
2018-04-14T14:30:38.017Z,33.50
2018-04-14T14:33:04.348Z,33.10
2018-04-14T14:35:30.657Z,32.90
2018-04-14T14:37:57.749Z,32.80
2018-04-14T14:40:24.481Z,32.80
2018-04-14T14:42:50.865Z,32.20
2018-04-14T14:45:17.108Z,32.00
2018-04-14T14:47:44.157Z,32.40
2018-04-14T14:50:18.295Z,32.50
2018-04-14T14:52:44.611Z,32.50
2018-04-14T14:55:10.928Z,32.40
2018-04-14T14:57:39.017Z,32.50
2018-04-14T15:00:05.339Z,32.40
2018-04-14T15:02:32.393Z,32.00
2018-04-14T15:04:58.713Z,32.00
2018-04-14T15:07:25.049Z,31.50
2018-04-14T15:09:51.354Z,31.10
2018-04-14T15:12:17.653Z,31.10
2018-04-14T15:14:43.964Z,31.40
2018-04-14T15:17:10.272Z,31.50
2018-04-14T15:19:36.594Z,31.40
2018-04-14T15:22:04.087Z,31.70
2018-04-14T15:24:30.401Z,31.60
2018-04-14T15:26:56.725Z,31.40
2018-04-14T15:29:23.065Z,31.30
2018-04-14T15:31:49.388Z,32.20
2018-04-14T15:34:15.713Z,32.00
2018-04-14T15:36:42.027Z,32.30
2018-04-14T15:39:09.816Z,33.50
2018-04-14T15:41:36.129Z,33.50
2018-04-14T15:44:03.176Z,33.90
2018-04-14T15:46:30.233Z,33.20
2018-04-14T15:48:56.553Z,33.20
2018-04-14T15:51:23.605Z,32.30
2018-04-14T15:53:49.936Z,32.20
2018-04-14T15:56:17.013Z,31.20
2018-04-14T15:58:43.333Z,31.10
2018-04-14T16:01:09.662Z,30.50
2018-04-14T16:03:44.581Z,30.20
2018-04-14T16:06:02.316Z,29.90
2018-04-14T16:08:28.637Z,30.10
2018-04-14T16:10:54.966Z,30.20
2018-04-14T16:13:21.294Z,30.80
2018-04-14T16:15:48.353Z,31.20
2018-04-14T16:18:14.772Z,31.20
2018-04-14T16:20:41.116Z,30.60
2018-04-14T16:23:07.428Z,30.10
2018-04-14T16:25:33.748Z,29.80
2018-04-14T16:28:00.054Z,29.20
2018-04-14T16:30:27.210Z,27.70
2018-04-14T16:32:53.533Z,27.60
2018-04-14T16:35:19.845Z,26.70
2018-04-14T16:37:46.367Z,25.90
2018-04-14T16:40:12.691Z,25.00
2018-04-14T16:42:39.025Z,24.50
2018-04-14T16:45:06.108Z,23.40
2018-04-14T16:47:33.037Z,23.30
2018-04-14T16:50:00.121Z,22.50
2018-04-14T16:52:26.461Z,22.40
2018-04-14T16:54:53.770Z,22.30
2018-04-14T16:57:20.837Z,21.60
2018-04-14T16:59:47.141Z,21.50
2018-04-14T17:02:14.209Z,21.10
2018-04-14T17:04:40.533Z,21.00
2018-04-14T17:07:07.584Z,20.60
2018-04-14T17:09:34.691Z,20.40
2018-04-14T17:12:00.998Z,20.40
2018-04-14T17:14:28.343Z,20.10
2018-04-14T17:16:55.115Z,19.90
2018-04-14T17:19:21.431Z,19.70
2018-04-14T17:21:48.780Z,19.60
2018-04-14T17:24:15.109Z,19.30
2018-04-14T17:26:41.440Z,19.10
2018-04-14T17:29:07.768Z,18.90
2018-04-14T17:31:34.099Z,18.80
2018-04-14T17:34:00.423Z,18.70
2018-04-14T17:36:26.767Z,18.60
2018-04-14T17:38:53.107Z,18.30
2018-04-14T17:41:19.621Z,18.20
2018-04-14T17:43:46.704Z,18.10
2018-04-14T17:46:13.753Z,17.70
2018-04-14T17:48:40.089Z,17.70
2018-04-14T17:51:07.425Z,17.60
2018-04-14T17:53:33.740Z,17.40
2018-04-14T17:56:00.081Z,17.30
2018-04-14T17:58:26.400Z,17.20
2018-04-14T18:00:52.754Z,16.90
2018-04-14T18:03:19.140Z,16.80
2018-04-14T18:05:45.452Z,16.60
2018-04-14T18:08:12.516Z,16.40
2018-04-14T18:10:38.846Z,16.30
2018-04-14T18:13:05.760Z,16.40
2018-04-14T18:15:32.089Z,16.10
2018-04-14T18:17:58.411Z,16.00
2018-04-14T18:20:24.753Z,15.80
2018-04-14T18:22:51.061Z,15.70
2018-04-14T18:25:17.388Z,15.60
2018-04-14T18:27:43.813Z,15.50
2018-04-14T18:30:10.158Z,15.50
2018-04-14T18:32:36.497Z,15.50
2018-04-14T18:35:02.904Z,15.40
2018-04-14T18:37:29.233Z,15.30
2018-04-14T18:39:55.589Z,15.30
2018-04-14T18:42:21.965Z,15.10
2018-04-14T18:44:49.033Z,15.10
2018-04-14T18:47:15.356Z,15.00
2018-04-14T18:49:41.726Z,15.00
2018-04-14T18:52:08.064Z,14.80
2018-04-14T18:54:35.020Z,14.70
2018-04-14T18:57:02.891Z,14.70
2018-04-14T18:59:29.673Z,14.70
2018-04-14T19:01:56.020Z,14.70
2018-04-14T19:04:22.418Z,14.60
2018-04-14T19:06:49.480Z,14.50
2018-04-14T19:09:15.809Z,14.50
2018-04-14T19:11:42.144Z,14.50
2018-04-14T19:14:08.465Z,14.40
2018-04-14T19:16:34.813Z,14.40
2018-04-14T19:19:01.146Z,14.30
2018-04-14T19:21:27.474Z,14.30
2018-04-14T19:23:53.809Z,14.30
2018-04-14T19:26:20.145Z,14.10
2018-04-14T19:28:46.457Z,14.10
2018-04-14T19:31:12.829Z,14.00
2018-04-14T19:33:39.166Z,14.00
2018-04-14T19:36:05.513Z,13.90
2018-04-14T19:38:31.817Z,13.80
2018-04-14T19:40:58.355Z,13.70
2018-04-14T19:43:24.839Z,13.60
2018-04-14T19:45:53.149Z,13.60
2018-04-14T19:48:19.886Z,13.50
2018-04-14T19:50:48.008Z,13.40
2018-04-14T19:53:14.377Z,13.40
2018-04-14T19:55:40.735Z,13.40
2018-04-14T19:58:07.069Z,13.30
2018-04-14T20:00:33.401Z,13.20
2018-04-14T20:03:00.053Z,13.20
2018-04-14T20:05:26.409Z,13.10
2018-04-14T20:07:53.453Z,13.00
2018-04-14T20:10:20.520Z,12.90
2018-04-14T20:12:46.881Z,12.90
2018-04-14T20:15:14.222Z,12.90
2018-04-14T20:17:41.537Z,12.80
2018-04-14T20:20:07.850Z,12.80
2018-04-14T20:22:34.201Z,12.70
2018-04-14T20:25:01.297Z,12.60
2018-04-14T20:27:27.651Z,12.60
2018-04-14T20:29:54.000Z,12.60
2018-04-14T20:32:20.328Z,12.50
2018-04-14T20:34:46.665Z,12.50
2018-04-14T20:37:13.061Z,12.40
2018-04-14T20:39:40.107Z,12.50
2018-04-14T20:42:06.429Z,12.50
2018-04-14T20:44:32.769Z,12.50
2018-04-14T20:46:59.097Z,12.40
2018-04-14T20:49:25.413Z,12.20
2018-04-14T20:51:52.761Z,12.10
2018-04-14T20:54:19.101Z,12.00
2018-04-14T20:56:45.416Z,12.00
2018-04-14T20:59:11.937Z,11.90
2018-04-14T21:01:40.025Z,11.80
2018-04-14T21:04:06.401Z,11.80
2018-04-14T21:06:32.727Z,11.70
2018-04-14T21:08:59.146Z,11.70
2018-04-14T21:11:25.503Z,11.60
2018-04-14T21:13:51.864Z,11.50
2018-04-14T21:16:18.921Z,11.50
2018-04-14T21:18:46.050Z,11.40
2018-04-14T21:21:13.133Z,11.40
2018-04-14T21:23:40.503Z,11.40
2018-04-14T21:26:06.852Z,11.40
2018-04-14T21:28:33.201Z,11.50
2018-04-14T21:30:59.572Z,11.50
2018-04-14T21:33:25.901Z,11.50
2018-04-14T21:35:52.952Z,11.50
2018-04-14T21:38:19.267Z,11.50
2018-04-14T21:40:46.328Z,11.40
2018-04-14T21:43:12.701Z,11.40
2018-04-14T21:45:39.076Z,11.30
2018-04-14T21:48:06.141Z,11.20
2018-04-14T21:50:32.465Z,11.10
2018-04-14T21:52:59.524Z,11.20
2018-04-14T21:55:26.600Z,11.20
2018-04-14T21:57:52.967Z,11.20
2018-04-14T22:00:19.289Z,11.20
2018-04-14T22:02:45.617Z,11.10
2018-04-14T22:05:13.408Z,11.00
2018-04-14T22:07:40.479Z,10.90
2018-04-14T22:10:06.837Z,10.90
2018-04-14T22:12:33.227Z,10.90
2018-04-14T22:15:00.373Z,10.90
2018-04-14T22:17:27.444Z,10.90
2018-04-14T22:19:53.772Z,10.90
2018-04-14T22:22:20.199Z,10.90
2018-04-14T22:24:46.521Z,10.90
2018-04-14T22:27:13.585Z,10.90
2018-04-14T22:29:39.909Z,10.90
2018-04-14T22:32:06.330Z,10.80
2018-04-14T22:34:33.468Z,10.70
2018-04-14T22:37:00.617Z,10.60
2018-04-14T22:39:27.681Z,10.60
2018-04-14T22:41:54.009Z,10.50
2018-04-14T22:44:21.151Z,10.60
2018-04-14T22:46:48.200Z,10.60
2018-04-14T22:49:15.654Z,10.60
2018-04-14T22:51:42.722Z,10.60
2018-04-14T22:54:09.049Z,10.50
2018-04-14T22:56:35.577Z,10.60
2018-04-14T22:59:02.665Z,10.50
2018-04-14T23:01:29.725Z,10.50
2018-04-14T23:03:56.041Z,10.40
2018-04-14T23:06:22.389Z,10.30
2018-04-14T23:08:48.755Z,10.30
2018-04-14T23:11:15.831Z,10.10
2018-04-14T23:13:42.179Z,10.10
2018-04-14T23:16:08.522Z,10.10
2018-04-14T23:18:34.840Z,10.10
2018-04-14T23:21:01.185Z,10.10
2018-04-14T23:23:27.537Z,10.10
2018-04-14T23:25:53.881Z,10.00
2018-04-14T23:28:20.948Z,10.00
2018-04-14T23:30:48.032Z,10.00
2018-04-14T23:33:14.944Z,9.90
2018-04-14T23:35:41.285Z,9.90
2018-04-14T23:38:07.602Z,9.90
2018-04-14T23:40:33.932Z,9.90
2018-04-14T23:43:00.294Z,9.80
2018-04-14T23:45:26.655Z,9.90
2018-04-14T23:47:53.001Z,9.80
2018-04-14T23:50:20.091Z,9.60
2018-04-14T23:52:46.424Z,9.50
2018-04-14T23:55:12.732Z,9.50
2018-04-14T23:57:40.129Z,9.60
